Terminal Aerodrome Forecast
Issued by NWS

Home | Current Version | Previous Version | Text Only | Print | Product List | Glossary On
Versions: 1 2 3 4 5 6 7 8 9 10 11 12 13 14 15 16 17 18 19
914
FTUS43 KDLH 211137
TAFHIB
TAF
KHIB 211137Z 2112/2212 33014G22KT P6SM SCT025
     FM211400 33014G21KT P6SM SCT050
     FM220000 34009KT P6SM SKC
     FM220600 00000KT P6SM SKC=

USA.gov is the U.S. government's official web portal to all federal, state and local government web resources and services.